EHEH

Eindhoven Airport

Airport
ICAO code
EHEH
IATA Code
EIN
Summary
ICAO Region
EUR
ICAO Territory
Location

Eindhoven, Noord-Brabant

Serving
Eindhoven
Elevation
74 ft
Coordinates
51° 27' 1" N , 5° 22' 28" E
KCC
Metar
Observation
EHEH 070025Z AUTO 25004KT 6000 BR NCD 03/02 Q1018 WHT TEMPO FEW007 SCT015CB BKN020 RMK CB INFO NOT AVBL
Station
Eindhoven
Date/Time
2022-12-07 00:25:00
Wind direction
250°
Wind speed
04 kts
Lowest cloud amount
few clouds
Temperature
3°C
Dew point
2°C
Humidity
93%
QNH
1018 hPa
Weather condition
n/a

International airport serving Eindhoven, The Netherlands.

Climatology

Temperate Marine climate/Oceanic climate (Köppen climate classification Cfb). Moderately cool summer and comparatively warm winter with a temperature range of only 14°C. Prevailing south-westerly winds from the Atlantic Ocean.

Runways

Designator Length Width Surface Rops
4/22 3000 45 ASP Yes/Yes

SKYbrary Partners:

Safety knowledge contributed by: